createdAt,value
2019-03-20T00:01:31.049Z,3.08
2019-03-20T00:04:02.765Z,3.10
2019-03-20T00:06:34.355Z,3.37
2019-03-20T00:09:08.317Z,4.33
2019-03-20T00:11:39.766Z,2.95
2019-03-20T00:14:11.719Z,3.90
2019-03-20T00:19:14.073Z,3.05
2019-03-20T00:21:45.789Z,3.20
2019-03-20T00:26:48.308Z,2.72
2019-03-20T00:29:20.296Z,3.25
2019-03-20T00:31:52.417Z,3.40
2019-03-20T00:34:24.065Z,3.17
2019-03-20T00:36:55.738Z,4.03
2019-03-20T00:39:27.784Z,4.03
2019-03-20T00:44:30.262Z,3.40
2019-03-20T00:47:01.800Z,3.12
2019-03-20T00:52:04.328Z,4.58
2019-03-20T00:54:35.917Z,3.87
2019-03-20T00:57:07.748Z,3.98
2019-03-20T01:02:10.737Z,4.22
2019-03-20T01:07:13.313Z,3.58
2019-03-20T01:09:44.833Z,3.02
2019-03-20T01:12:17.752Z,3.98
2019-03-20T01:14:49.760Z,3.20
2019-03-20T01:19:52.637Z,3.47
2019-03-20T01:22:24.343Z,3.42
2019-03-20T01:24:56.000Z,4.60
2019-03-20T01:27:27.782Z,3.55
2019-03-20T01:29:59.764Z,4.10
2019-03-20T01:32:31.429Z,3.77
2019-03-20T01:35:03.608Z,5.25
2019-03-20T01:37:35.438Z,2.75
2019-03-20T01:40:07.439Z,3.22
2019-03-20T01:42:39.080Z,3.67
2019-03-20T01:45:11.697Z,3.27
2019-03-20T01:47:43.829Z,4.67
2019-03-20T01:50:15.510Z,4.08
2019-03-20T01:52:47.075Z,3.85
2019-03-20T01:55:18.772Z,4.45
2019-03-20T02:00:21.359Z,4.33
2019-03-20T02:02:53.404Z,2.65
2019-03-20T02:05:35.210Z,4.70
2019-03-20T02:07:58.601Z,4.60
2019-03-20T02:10:30.338Z,6.15
2019-03-20T02:13:02.317Z,3.85
2019-03-20T02:15:39.118Z,4.28
2019-03-20T02:18:08.757Z,6.00
2019-03-20T02:23:11.074Z,4.40
2019-03-20T02:25:42.789Z,3.70
2019-03-20T02:30:45.394Z,4.65
2019-03-20T02:33:17.075Z,3.60
2019-03-20T02:35:51.935Z,3.92
2019-03-20T02:38:23.336Z,4.40
2019-03-20T02:40:55.053Z,4.08
2019-03-20T02:43:26.765Z,3.33
2019-03-20T02:45:58.754Z,3.80
2019-03-20T02:51:01.817Z,3.47
2019-03-20T02:53:33.773Z,3.27
2019-03-20T02:56:05.681Z,3.95
2019-03-20T03:03:39.334Z,3.92
2019-03-20T03:06:11.063Z,3.42
2019-03-20T03:08:42.756Z,6.05
2019-03-20T03:13:45.343Z,3.50
2019-03-20T03:16:17.064Z,3.65
2019-03-20T03:18:48.742Z,3.40
2019-03-20T03:23:51.074Z,3.98
2019-03-20T03:26:22.784Z,3.67
2019-03-20T03:31:25.041Z,3.50
2019-03-20T03:33:57.039Z,3.98
2019-03-20T03:36:28.757Z,3.50
2019-03-20T03:41:31.320Z,4.90
2019-03-20T03:44:03.354Z,2.65
2019-03-20T03:46:35.001Z,4.15
2019-03-20T03:49:06.755Z,3.92
2019-03-20T03:51:38.388Z,4.10
2019-03-20T03:54:10.761Z,3.98
2019-03-20T03:59:13.782Z,3.55
2019-03-20T04:01:45.916Z,3.95
2019-03-20T04:04:17.593Z,4.62
2019-03-20T04:06:49.547Z,5.12
2019-03-20T04:09:21.785Z,3.08
2019-03-20T04:11:53.807Z,2.75
2019-03-20T04:14:25.383Z,3.75
2019-03-20T04:16:58.306Z,4.67
2019-03-20T04:19:29.907Z,3.75
2019-03-20T04:22:01.747Z,5.25
2019-03-20T04:24:33.370Z,3.40
2019-03-20T04:27:05.053Z,4.85
2019-03-20T04:29:36.850Z,4.42
2019-03-20T04:32:08.485Z,3.62
2019-03-20T04:34:40.301Z,2.52
2019-03-20T04:37:12.062Z,4.12
2019-03-20T04:39:43.790Z,4.35
2019-03-20T04:44:46.310Z,3.27
2019-03-20T04:47:17.878Z,3.05
2019-03-20T04:49:49.377Z,4.17
2019-03-20T04:52:21.440Z,3.60
2019-03-20T04:54:53.069Z,3.77
2019-03-20T04:57:24.833Z,3.47
2019-03-20T04:59:56.609Z,3.30
2019-03-20T05:02:28.724Z,4.85
2019-03-20T05:07:31.769Z,4.55
2019-03-20T05:12:35.309Z,4.00
2019-03-20T05:15:07.701Z,3.65
2019-03-20T05:20:12.775Z,3.40
2019-03-20T05:22:44.375Z,3.50
2019-03-20T05:25:15.996Z,5.95
2019-03-20T05:27:47.740Z,3.75
2019-03-20T05:32:50.272Z,4.47
2019-03-20T05:35:21.845Z,5.42
2019-03-20T05:37:53.753Z,3.92
2019-03-20T05:42:56.066Z,4.37
2019-03-20T05:45:27.761Z,6.97
2019-03-20T05:50:30.326Z,5.78
2019-03-20T05:53:05.231Z,6.37
2019-03-20T05:55:36.788Z,4.87
2019-03-20T05:58:08.753Z,5.53
2019-03-20T06:03:11.313Z,5.10
2019-03-20T06:05:42.838Z,4.03
2019-03-20T06:08:14.632Z,5.42
2019-03-20T06:10:46.369Z,3.08
2019-03-20T06:13:18.366Z,2.62
2019-03-20T06:15:50.305Z,2.98
2019-03-20T06:18:22.748Z,4.17
2019-03-20T06:23:26.265Z,4.00
2019-03-20T06:25:57.791Z,3.87
2019-03-20T06:28:29.780Z,4.10
2019-03-20T06:31:01.786Z,3.40
2019-03-20T06:36:05.305Z,4.60
2019-03-20T06:38:36.858Z,4.28
2019-03-20T06:41:08.383Z,6.15
2019-03-20T06:43:40.056Z,4.40
2019-03-20T06:46:11.772Z,4.30
2019-03-20T06:51:14.304Z,6.65
2019-03-20T06:53:45.828Z,5.25
2019-03-20T06:56:17.742Z,3.92
2019-03-20T07:01:30.353Z,4.75
2019-03-20T07:05:05.264Z,2.33
2019-03-20T07:07:44.291Z,4.80
2019-03-20T07:10:55.318Z,2.55
2019-03-20T07:13:27.485Z,3.50
2019-03-20T07:15:59.557Z,4.50
2019-03-20T07:18:31.292Z,4.58
2019-03-20T07:21:02.890Z,3.83
2019-03-20T07:23:34.361Z,3.40
2019-03-20T07:26:06.287Z,2.67
2019-03-20T07:28:37.851Z,3.52
2019-03-20T07:31:15.104Z,3.08
2019-03-20T07:33:43.753Z,3.33
2019-03-20T07:38:46.728Z,3.62
2019-03-20T07:43:49.759Z,3.33
2019-03-20T07:46:21.395Z,2.22
2019-03-20T07:48:52.769Z,3.47
2019-03-20T07:51:24.583Z,2.47
2019-03-20T07:53:56.632Z,2.98
2019-03-20T07:56:28.564Z,5.80
2019-03-20T07:58:59.606Z,3.35
2019-03-20T08:01:31.330Z,2.12
2019-03-20T08:04:03.615Z,2.00
2019-03-20T08:09:08.297Z,3.33
2019-03-20T08:11:39.863Z,4.45
2019-03-20T08:14:11.802Z,2.47
2019-03-20T08:16:43.466Z,2.10
2019-03-20T08:19:15.061Z,3.80
2019-03-20T08:21:47.604Z,2.12
2019-03-20T08:24:19.369Z,2.85
2019-03-20T08:26:51.036Z,3.35
2019-03-20T08:29:23.303Z,3.05
2019-03-20T08:31:54.873Z,2.22
2019-03-20T08:34:29.385Z,2.75
2019-03-20T08:37:02.530Z,2.40
2019-03-20T08:39:35.270Z,2.90
2019-03-20T08:42:07.779Z,2.85
2019-03-20T08:47:10.768Z,2.22
2019-03-20T08:52:14.298Z,2.12
2019-03-20T08:54:46.695Z,2.40
2019-03-20T08:59:49.346Z,2.62
2019-03-20T09:02:21.497Z,2.27
2019-03-20T09:04:53.647Z,2.47
2019-03-20T09:07:25.784Z,2.00
2019-03-20T09:09:58.298Z,2.80
2019-03-20T09:12:30.412Z,2.60
2019-03-20T09:15:02.830Z,2.22
2019-03-20T09:17:34.817Z,3.22
2019-03-20T09:20:07.308Z,2.67
2019-03-20T09:22:39.301Z,2.77
2019-03-20T09:25:14.667Z,1.90
2019-03-20T09:27:46.795Z,2.05
2019-03-20T09:30:21.798Z,2.15
2019-03-20T09:32:54.306Z,2.20
2019-03-20T09:35:26.475Z,2.27
2019-03-20T09:37:58.840Z,1.95
2019-03-20T09:40:30.789Z,1.75
2019-03-20T09:45:33.803Z,1.80
2019-03-20T09:48:05.796Z,3.00
2019-03-20T09:50:37.800Z,1.82
2019-03-20T09:53:09.765Z,2.17
2019-03-20T09:55:41.807Z,1.65
2019-03-20T09:58:13.803Z,1.83
2019-03-20T10:00:45.815Z,3.40
2019-03-20T10:03:17.843Z,1.90
2019-03-20T10:05:49.808Z,2.25
2019-03-20T10:08:21.770Z,1.65
2019-03-20T10:13:24.794Z,3.00
2019-03-20T10:15:56.807Z,1.62
2019-03-20T10:18:28.838Z,2.00
2019-03-20T10:21:00.777Z,2.65
2019-03-20T10:26:03.808Z,2.08
2019-03-20T10:28:35.777Z,1.70
2019-03-20T10:38:40.304Z,2.02
2019-03-20T10:41:11.631Z,2.00
2019-03-20T10:43:44.274Z,1.67
2019-03-20T10:46:16.320Z,2.37
2019-03-20T10:48:48.434Z,2.33
2019-03-20T10:51:20.532Z,3.75
2019-03-20T10:53:52.835Z,2.30
2019-03-20T10:56:24.803Z,2.58
2019-03-20T10:58:56.892Z,3.05
2019-03-20T11:01:28.815Z,1.95
2019-03-20T11:04:00.828Z,1.95
2019-03-20T11:06:32.838Z,1.70
2019-03-20T11:09:05.378Z,1.75
2019-03-20T11:11:37.322Z,2.58
2019-03-20T11:14:09.798Z,1.95
2019-03-20T11:16:41.838Z,2.65
2019-03-20T11:19:13.838Z,2.45
2019-03-20T11:21:45.807Z,1.85
2019-03-20T11:24:17.775Z,1.87
2019-03-20T11:29:21.817Z,1.85
2019-03-20T11:31:54.305Z,2.95
2019-03-20T11:34:26.302Z,2.47
2019-03-20T11:36:58.499Z,1.85
2019-03-20T11:39:30.831Z,1.92
2019-03-20T11:42:02.813Z,2.05
2019-03-20T11:44:34.853Z,2.17
2019-03-20T11:47:06.776Z,2.58
2019-03-20T11:52:09.851Z,5.67
2019-03-20T11:54:41.852Z,1.70
2019-03-20T11:57:13.877Z,2.02
2019-03-20T11:59:46.319Z,2.37
2019-03-20T12:02:27.759Z,2.08
2019-03-20T12:04:53.898Z,1.92
2019-03-20T12:09:56.975Z,1.80
2019-03-20T12:12:28.836Z,1.90
2019-03-20T12:15:00.781Z,1.85
2019-03-20T12:22:34.781Z,3.83
2019-03-20T12:27:39.301Z,1.57
2019-03-20T12:30:15.307Z,2.85
2019-03-20T12:32:47.313Z,2.10
2019-03-20T12:35:19.317Z,3.20
2019-03-20T12:37:51.283Z,2.02
2019-03-20T12:40:30.303Z,1.80
2019-03-20T12:43:02.339Z,3.12
2019-03-20T12:45:35.826Z,2.47
2019-03-20T12:48:07.858Z,2.58
2019-03-20T12:50:39.835Z,1.57
2019-03-20T12:53:12.641Z,2.20
2019-03-20T12:55:44.829Z,2.67
2019-03-20T12:58:16.801Z,3.50
2019-03-20T13:03:19.431Z,2.83
2019-03-20T13:05:51.340Z,1.65
2019-03-20T13:08:23.275Z,2.55
2019-03-20T13:10:55.319Z,2.65
2019-03-20T13:13:27.322Z,1.57
2019-03-20T13:15:59.859Z,1.90
2019-03-20T13:18:31.851Z,1.50
2019-03-20T13:21:03.799Z,2.37
2019-03-20T13:23:35.813Z,2.22
2019-03-20T13:26:07.821Z,3.08
2019-03-20T13:28:40.316Z,1.92
2019-03-20T13:31:20.425Z,3.15
2019-03-20T13:33:53.489Z,1.92
2019-03-20T13:36:25.839Z,2.00
2019-03-20T13:38:58.765Z,2.33
2019-03-20T13:44:01.260Z,1.77
2019-03-20T13:46:32.644Z,3.02
2019-03-20T13:49:04.756Z,2.10
2019-03-20T13:54:07.480Z,3.05
2019-03-20T13:56:40.894Z,1.50
2019-03-20T13:59:12.801Z,1.98
2019-03-20T14:06:46.785Z,1.90
2019-03-20T14:21:55.690Z,1.57
2019-03-20T14:27:01.263Z,1.57
2019-03-20T14:29:33.312Z,1.45
2019-03-20T14:32:05.323Z,1.60
2019-03-20T14:34:37.323Z,1.90
2019-03-20T14:37:09.301Z,1.60
2019-03-20T14:39:41.273Z,1.77
2019-03-20T14:42:13.320Z,1.90
2019-03-20T14:44:45.301Z,1.77
2019-03-20T14:47:17.311Z,1.60
2019-03-20T14:49:49.301Z,2.25
2019-03-20T14:52:21.504Z,1.67
2019-03-20T14:54:53.547Z,1.57
2019-03-20T14:57:25.793Z,2.33
2019-03-20T15:04:59.186Z,2.30
2019-03-20T15:07:30.439Z,1.55
2019-03-20T15:10:02.317Z,1.40
2019-03-20T15:12:34.307Z,1.65
2019-03-20T15:15:09.829Z,2.33
2019-03-20T15:17:41.803Z,1.62
2019-03-20T15:20:13.798Z,1.77
2019-03-20T15:22:45.743Z,1.95
2019-03-20T15:25:23.680Z,2.10
2019-03-20T15:27:55.795Z,2.17
2019-03-20T15:30:29.603Z,2.70
2019-03-20T15:33:01.795Z,3.17
2019-03-20T15:35:33.758Z,3.87
2019-03-20T15:40:36.816Z,4.00
2019-03-20T15:43:08.832Z,4.15
2019-03-20T15:45:40.804Z,5.20
2019-03-20T15:48:12.790Z,3.72
2019-03-20T15:53:16.310Z,2.92
2019-03-20T15:55:48.299Z,3.83
2019-03-20T15:58:20.312Z,4.35
2019-03-20T16:00:52.779Z,5.12
2019-03-20T16:03:26.300Z,4.30
2019-03-20T16:05:59.814Z,4.08
2019-03-20T16:08:31.821Z,3.35
2019-03-20T16:11:06.885Z,4.53
2019-03-20T16:13:37.650Z,3.00
2019-03-20T16:16:09.261Z,3.67
2019-03-20T16:18:40.604Z,4.40
2019-03-20T16:21:12.773Z,3.42
2019-03-20T16:26:15.771Z,2.40
2019-03-20T16:31:18.770Z,5.20
2019-03-20T16:38:54.340Z,4.60
2019-03-20T16:41:26.374Z,4.60
2019-03-20T16:43:58.584Z,3.37
2019-03-20T16:46:30.454Z,2.65
2019-03-20T16:49:02.416Z,4.30
2019-03-20T16:51:34.681Z,5.25
2019-03-20T16:54:06.788Z,7.00
2019-03-20T16:59:13.889Z,6.17
2019-03-20T17:01:45.753Z,4.55
2019-03-20T17:06:48.380Z,8.45
2019-03-20T17:09:23.292Z,6.03
2019-03-20T17:11:54.853Z,6.62
2019-03-20T17:14:26.668Z,4.20
2019-03-20T17:16:58.295Z,6.45
2019-03-20T17:19:30.055Z,7.35
2019-03-20T17:22:01.804Z,4.58
2019-03-20T17:24:33.751Z,3.58
2019-03-20T17:29:37.295Z,5.30
2019-03-20T17:32:09.288Z,7.45
2019-03-20T17:34:40.809Z,6.53
2019-03-20T17:37:12.601Z,5.78
2019-03-20T17:39:44.305Z,6.75
2019-03-20T17:42:15.873Z,5.70
2019-03-20T17:44:47.368Z,8.35
2019-03-20T17:47:19.303Z,2.35
2019-03-20T17:49:50.876Z,12.82
2019-03-20T17:52:22.630Z,4.42
2019-03-20T17:54:54.808Z,4.50
2019-03-20T17:57:26.455Z,3.98
2019-03-20T17:59:58.063Z,3.60
2019-03-20T18:02:29.772Z,5.58
2019-03-20T18:07:33.817Z,3.27
2019-03-20T18:10:06.312Z,4.15
2019-03-20T18:12:38.292Z,4.90
2019-03-20T18:15:12.293Z,4.42
2019-03-20T18:17:43.835Z,5.08
2019-03-20T18:20:16.291Z,5.00
2019-03-20T18:23:09.366Z,6.80
2019-03-20T18:25:41.317Z,4.97
2019-03-20T18:28:12.893Z,5.12
2019-03-20T18:30:44.792Z,7.00
2019-03-20T18:35:48.017Z,7.33
2019-03-20T18:38:19.766Z,11.03
2019-03-20T18:43:25.294Z,7.75
2019-03-20T18:45:56.893Z,7.58
2019-03-20T18:48:28.404Z,8.13
2019-03-20T18:51:00.299Z,10.48
2019-03-20T18:53:32.583Z,12.23
2019-03-20T18:56:04.387Z,13.75
2019-03-20T18:58:36.388Z,10.45
2019-03-20T19:01:10.001Z,11.18
2019-03-20T19:06:23.288Z,12.28
2019-03-20T19:08:54.858Z,11.45
2019-03-20T19:11:26.726Z,13.40
2019-03-20T19:13:58.632Z,11.05
2019-03-20T19:16:29.948Z,11.80
2019-03-20T19:19:01.804Z,9.90
2019-03-20T19:21:33.627Z,11.75
2019-03-20T19:26:36.488Z,8.45
2019-03-20T19:29:08.302Z,3.00
2019-03-20T19:31:39.773Z,2.25
2019-03-20T19:34:11.986Z,2.10
2019-03-20T19:36:43.766Z,3.22
2019-03-20T19:41:46.719Z,2.00
2019-03-20T19:46:51.757Z,4.80
2019-03-20T19:51:54.017Z,7.65
2019-03-20T19:54:26.378Z,6.95
2019-03-20T19:56:58.044Z,7.87
2019-03-20T19:59:29.774Z,6.12
2019-03-20T20:04:32.625Z,6.83
2019-03-20T20:07:04.329Z,7.92
2019-03-20T20:09:36.778Z,7.67
2019-03-20T20:14:39.297Z,8.70
2019-03-20T20:17:10.755Z,8.18
2019-03-20T20:19:42.916Z,9.00
2019-03-20T20:22:14.421Z,8.95
2019-03-20T20:24:46.305Z,7.95
2019-03-20T20:27:17.913Z,11.03
2019-03-20T20:29:50.270Z,11.70
2019-03-20T20:32:22.065Z,11.95
2019-03-20T20:34:54.336Z,11.80
2019-03-20T20:37:29.344Z,13.18
2019-03-20T20:40:02.768Z,13.62
2019-03-20T20:45:19.331Z,9.88
2019-03-20T20:47:50.873Z,11.70
2019-03-20T20:50:22.385Z,10.65
2019-03-20T20:52:54.070Z,6.37
2019-03-20T20:55:25.739Z,4.70
2019-03-20T21:00:28.076Z,3.00
2019-03-20T21:02:59.796Z,3.92
2019-03-20T21:05:31.413Z,2.90
2019-03-20T21:08:03.136Z,4.97
2019-03-20T21:10:34.783Z,4.17
2019-03-20T21:19:21.820Z,3.05
2019-03-20T21:23:28.752Z,6.10
2019-03-20T21:30:11.809Z,4.12
2019-03-20T21:32:45.795Z,4.05
2019-03-20T21:37:09.579Z,5.30
2019-03-20T21:39:42.309Z,3.58
2019-03-20T21:43:51.417Z,4.25
2019-03-20T21:47:35.300Z,7.33
2019-03-20T21:51:11.836Z,5.65
2019-03-20T21:54:59.508Z,4.92
2019-03-20T21:58:04.312Z,6.58
2019-03-20T22:02:12.334Z,7.35
2019-03-20T22:04:46.075Z,4.53
2019-03-20T22:07:19.094Z,3.77
2019-03-20T22:11:30.765Z,8.25
2019-03-20T22:18:12.142Z,5.53
2019-03-20T22:21:41.681Z,3.58
2019-03-20T22:25:02.429Z,6.37
2019-03-20T22:29:01.437Z,8.55
2019-03-20T22:31:35.806Z,5.85
2019-03-20T22:34:39.782Z,4.45
2019-03-20T22:37:12.820Z,3.60
2019-03-20T22:41:13.276Z,5.97
2019-03-20T22:44:05.733Z,3.70
2019-03-20T22:48:16.888Z,3.20
2019-03-20T22:52:08.780Z,5.28
2019-03-20T22:58:47.308Z,3.58
2019-03-20T23:01:44.861Z,5.70
2019-03-20T23:04:29.837Z,6.03
2019-03-20T23:07:02.767Z,6.37
2019-03-20T23:12:13.785Z,6.50
2019-03-20T23:17:19.094Z,4.92
2019-03-20T23:19:54.317Z,4.65
2019-03-20T23:22:27.005Z,8.95
2019-03-20T23:24:59.836Z,3.27
2019-03-20T23:27:34.344Z,5.17
2019-03-20T23:30:13.810Z,6.28
2019-03-20T23:32:47.338Z,4.35
2019-03-20T23:35:19.913Z,4.78
2019-03-20T23:37:52.880Z,5.17
2019-03-20T23:40:25.894Z,7.53
2019-03-20T23:42:59.317Z,5.10
2019-03-20T23:45:32.017Z,4.70
2019-03-20T23:48:25.328Z,3.42
2019-03-20T23:51:05.338Z,4.67
2019-03-20T23:53:39.830Z,3.75
2019-03-20T23:56:12.802Z,9.05
